createdAt,value
2023-04-09T00:00:57.119Z,304
2023-04-09T00:03:03.486Z,302
2023-04-09T00:05:10.065Z,303
2023-04-09T00:07:16.395Z,306
2023-04-09T00:09:23.495Z,307
2023-04-09T00:11:30.011Z,303
2023-04-09T00:13:42.731Z,303
2023-04-09T00:15:49.454Z,307
2023-04-09T00:17:56.301Z,307
2023-04-09T00:20:03.296Z,303
2023-04-09T00:22:10.030Z,302
2023-04-09T00:24:16.430Z,308
2023-04-09T00:26:22.733Z,303
2023-04-09T00:28:29.090Z,308
2023-04-09T00:30:35.768Z,307
2023-04-09T00:32:42.827Z,307
2023-04-09T00:34:49.648Z,306
2023-04-09T00:36:56.917Z,306
2023-04-09T00:39:03.248Z,303
2023-04-09T00:41:09.379Z,303
2023-04-09T00:43:15.861Z,303
2023-04-09T00:45:21.865Z,302
2023-04-09T00:47:28.212Z,305
2023-04-09T00:49:34.935Z,304
2023-04-09T00:51:41.093Z,303
2023-04-09T00:53:47.521Z,305
2023-04-09T00:55:54.322Z,306
2023-04-09T00:58:00.622Z,300
2023-04-09T01:00:07.392Z,302
2023-04-09T01:02:14.114Z,302
2023-04-09T01:04:20.688Z,301
2023-04-09T01:06:27.477Z,306
2023-04-09T01:08:34.229Z,303
2023-04-09T01:10:40.714Z,303
2023-04-09T01:12:47.438Z,306
2023-04-09T01:14:54.452Z,306
2023-04-09T01:17:01.173Z,303
2023-04-09T01:19:07.471Z,303
2023-04-09T01:21:13.934Z,305
2023-04-09T01:23:20.685Z,301
2023-04-09T01:25:28.864Z,306
2023-04-09T01:27:35.560Z,306
2023-04-09T01:29:41.777Z,306
2023-04-09T01:31:48.337Z,305
2023-04-09T01:33:57.676Z,306
2023-04-09T01:36:04.687Z,300
2023-04-09T01:38:15.238Z,301
2023-04-09T01:40:22.120Z,301
2023-04-09T01:42:28.753Z,301
2023-04-09T01:44:35.282Z,303
2023-04-09T01:46:41.731Z,306
2023-04-09T01:48:51.718Z,302
2023-04-09T01:50:59.118Z,309
2023-04-09T01:53:05.874Z,309
2023-04-09T01:55:12.233Z,301
2023-04-09T01:57:19.017Z,302
2023-04-09T01:59:25.495Z,301
2023-04-09T02:01:31.747Z,306
2023-04-09T02:03:39.487Z,306
2023-04-09T02:05:46.273Z,303
2023-04-09T02:07:54.501Z,306
2023-04-09T02:10:00.975Z,307
2023-04-09T02:12:07.892Z,307
2023-04-09T02:14:14.746Z,306
2023-04-09T02:16:24.686Z,306
2023-04-09T02:18:31.176Z,303
2023-04-09T02:20:37.828Z,303
2023-04-09T02:22:44.390Z,302
2023-04-09T02:24:51.600Z,302
2023-04-09T02:26:58.694Z,303
2023-04-09T02:29:04.933Z,302
2023-04-09T02:31:12.157Z,303
2023-04-09T02:33:18.674Z,302
2023-04-09T02:35:25.509Z,302
2023-04-09T02:37:32.003Z,301
2023-04-09T02:39:38.223Z,300
2023-04-09T02:41:45.037Z,302
2023-04-09T02:43:51.924Z,303
2023-04-09T02:45:58.667Z,303
2023-04-09T02:48:04.937Z,303
2023-04-09T02:50:11.083Z,302
2023-04-09T02:52:20.735Z,303
2023-04-09T02:54:27.853Z,306
2023-04-09T02:56:34.774Z,304
2023-04-09T02:58:41.357Z,306
2023-04-09T03:00:48.384Z,306
2023-04-09T03:02:55.388Z,303
2023-04-09T03:05:01.888Z,302
2023-04-09T03:07:08.600Z,302
2023-04-09T03:09:15.003Z,302
2023-04-09T03:11:21.413Z,302
2023-04-09T03:13:27.757Z,302
2023-04-09T03:15:34.816Z,303
2023-04-09T03:17:41.235Z,304
2023-04-09T03:19:47.620Z,303
2023-04-09T03:21:54.216Z,305
2023-04-09T03:24:00.333Z,303
2023-04-09T03:26:07.984Z,302
2023-04-09T03:28:14.529Z,303
2023-04-09T03:30:21.422Z,302
2023-04-09T03:32:28.936Z,303
2023-04-09T03:34:35.279Z,302
2023-04-09T03:36:42.269Z,301
2023-04-09T03:38:48.963Z,303
2023-04-09T03:40:55.895Z,303
2023-04-09T03:43:02.342Z,303
2023-04-09T03:45:08.609Z,302
2023-04-09T03:47:15.603Z,303
2023-04-09T03:49:22.111Z,306
2023-04-09T03:51:28.668Z,302
2023-04-09T03:53:34.922Z,303
2023-04-09T03:55:42.445Z,306
2023-04-09T03:57:51.054Z,306
2023-04-09T03:59:58.571Z,306
2023-04-09T04:02:05.288Z,306
2023-04-09T04:04:12.603Z,306
2023-04-09T04:06:19.485Z,307
2023-04-09T04:08:25.891Z,304
2023-04-09T04:10:32.222Z,306
2023-04-09T04:12:38.695Z,306
2023-04-09T04:14:44.981Z,305
2023-04-09T04:16:51.789Z,306
2023-04-09T04:18:58.070Z,307
2023-04-09T04:21:04.250Z,306
2023-04-09T04:23:12.488Z,304
2023-04-09T04:25:19.167Z,306
2023-04-09T04:27:25.338Z,303
2023-04-09T04:29:31.723Z,305
2023-04-09T04:31:37.842Z,303
2023-04-09T04:33:45.156Z,304
2023-04-09T04:35:52.347Z,303
2023-04-09T04:37:58.554Z,306
2023-04-09T04:40:05.234Z,305
2023-04-09T04:42:11.604Z,305
2023-04-09T04:44:18.115Z,304
2023-04-09T04:46:24.648Z,306
2023-04-09T04:48:31.322Z,306
2023-04-09T04:50:37.587Z,306
2023-04-09T04:52:44.671Z,306
2023-04-09T04:54:50.845Z,307
2023-04-09T04:56:57.146Z,306
2023-04-09T04:59:04.490Z,307
2023-04-09T05:01:12.613Z,307
2023-04-09T05:03:19.935Z,307
2023-04-09T05:05:26.385Z,307
2023-04-09T05:07:32.964Z,307
2023-04-09T05:09:38.919Z,307
2023-04-09T05:11:45.915Z,306
2023-04-09T05:13:52.388Z,306
2023-04-09T05:15:58.606Z,306
2023-04-09T05:18:04.975Z,307
2023-04-09T05:20:11.903Z,306
2023-04-09T05:22:18.184Z,306
2023-04-09T05:24:24.830Z,306
2023-04-09T05:26:31.288Z,306
2023-04-09T05:28:37.488Z,307
2023-04-09T05:30:44.350Z,307
2023-04-09T05:32:50.753Z,307
2023-04-09T05:34:57.000Z,306
2023-04-09T05:37:03.373Z,306
2023-04-09T05:39:10.188Z,307
2023-04-09T05:41:17.052Z,307
2023-04-09T05:43:23.378Z,306
2023-04-09T05:45:29.895Z,306
2023-04-09T05:47:36.285Z,306
2023-04-09T05:49:43.115Z,301
2023-04-09T05:51:50.148Z,306
2023-04-09T05:53:56.681Z,305
2023-04-09T05:56:03.050Z,303
2023-04-09T05:58:09.424Z,306
2023-04-09T06:00:17.846Z,307
2023-04-09T06:02:25.056Z,306
2023-04-09T06:04:33.775Z,303
2023-04-09T06:06:40.771Z,306
2023-04-09T06:08:48.240Z,306
2023-04-09T06:10:56.328Z,306
2023-04-09T06:13:05.369Z,306
2023-04-09T06:15:13.291Z,306
2023-04-09T06:17:19.813Z,306
2023-04-09T06:19:26.468Z,306
2023-04-09T06:21:33.330Z,307
2023-04-09T06:23:40.748Z,307
2023-04-09T06:25:47.281Z,307
2023-04-09T06:27:54.260Z,307
2023-04-09T06:30:00.844Z,306
2023-04-09T06:32:09.655Z,306
2023-04-09T06:34:17.148Z,306
2023-04-09T06:36:23.800Z,306
2023-04-09T06:38:33.286Z,306
2023-04-09T06:40:40.620Z,306
2023-04-09T06:42:46.856Z,306
2023-04-09T06:44:54.154Z,307
2023-04-09T06:47:00.559Z,307
2023-04-09T06:49:07.105Z,307
2023-04-09T06:51:15.658Z,307
2023-04-09T06:53:22.259Z,307
2023-04-09T06:55:29.232Z,307
2023-04-09T06:57:36.023Z,307
2023-04-09T06:59:45.276Z,307
2023-04-09T07:01:55.589Z,307
2023-04-09T07:04:02.715Z,307
2023-04-09T07:06:12.733Z,307
2023-04-09T07:08:19.019Z,307
2023-04-09T07:10:25.667Z,307
2023-04-09T07:12:32.232Z,307
2023-04-09T07:14:38.872Z,307
2023-04-09T07:16:45.475Z,307
2023-04-09T07:18:52.063Z,306
2023-04-09T07:20:59.319Z,307
2023-04-09T07:23:06.097Z,307
2023-04-09T07:25:12.519Z,307
2023-04-09T07:27:19.828Z,308
2023-04-09T07:29:27.358Z,307
2023-04-09T07:31:37.349Z,307
2023-04-09T07:33:44.591Z,307
2023-04-09T07:35:51.050Z,307
2023-04-09T07:38:01.317Z,307
2023-04-09T07:40:08.257Z,303
2023-04-09T07:42:14.957Z,306
2023-04-09T07:44:22.166Z,307
2023-04-09T07:48:39.255Z,307
2023-04-09T07:50:46.453Z,307
2023-04-09T07:52:52.908Z,306
2023-04-09T07:55:00.636Z,307
2023-04-09T07:57:07.023Z,308
2023-04-09T07:59:14.283Z,308
2023-04-09T08:01:20.842Z,308
2023-04-09T08:03:27.962Z,308
2023-04-09T08:05:34.960Z,307
2023-04-09T08:07:42.165Z,307
2023-04-09T08:09:48.368Z,308
2023-04-09T08:11:54.830Z,308
2023-04-09T08:14:04.245Z,308
2023-04-09T08:16:11.282Z,308
2023-04-09T08:18:18.447Z,302
2023-04-09T08:20:25.443Z,308
2023-04-09T08:22:31.856Z,307
2023-04-09T08:24:41.292Z,308
2023-04-09T08:26:48.338Z,308
2023-04-09T08:28:57.082Z,308
2023-04-09T08:31:03.642Z,307
2023-04-09T08:33:10.360Z,308
2023-04-09T08:35:17.347Z,308
2023-04-09T08:37:24.098Z,308
2023-04-09T08:39:30.838Z,308
2023-04-09T08:41:37.772Z,308
2023-04-09T08:44:01.414Z,308
2023-04-09T08:46:08.347Z,307
2023-04-09T08:48:15.230Z,308
2023-04-09T08:50:22.838Z,306
2023-04-09T08:52:29.199Z,303
2023-04-09T08:54:35.885Z,307
2023-04-09T08:56:42.257Z,308
2023-04-09T08:58:50.539Z,308
2023-04-09T09:00:57.655Z,308
2023-04-09T09:03:05.862Z,306
2023-04-09T09:05:12.748Z,307
2023-04-09T09:07:19.735Z,307
2023-04-09T09:09:26.708Z,307
2023-04-09T09:11:32.893Z,307
2023-04-09T09:13:39.487Z,307
2023-04-09T09:15:46.634Z,307
2023-04-09T09:17:53.553Z,308
2023-04-09T09:20:00.463Z,309
2023-04-09T09:22:07.532Z,306
2023-04-09T09:24:14.112Z,307
2023-04-09T09:26:21.222Z,306
2023-04-09T09:28:27.925Z,308
2023-04-09T09:30:34.433Z,308
2023-04-09T09:32:41.586Z,307
2023-04-09T09:34:51.511Z,306
2023-04-09T09:36:57.901Z,307
2023-04-09T09:39:04.243Z,307
2023-04-09T09:41:10.503Z,307
2023-04-09T09:43:17.890Z,306
2023-04-09T09:45:24.748Z,303
2023-04-09T09:47:31.082Z,306
2023-04-09T09:49:38.316Z,304
2023-04-09T09:51:44.816Z,306
2023-04-09T09:53:52.953Z,307
2023-04-09T09:55:59.517Z,308
2023-04-09T09:58:06.247Z,307
2023-04-09T10:00:13.328Z,307
2023-04-09T10:02:20.266Z,308
2023-04-09T10:04:27.230Z,307
2023-04-09T10:06:34.630Z,307
2023-04-09T10:08:41.195Z,308
2023-04-09T10:10:47.867Z,307
2023-04-09T10:12:54.828Z,308
2023-04-09T10:15:02.130Z,309
2023-04-09T10:17:08.980Z,309
2023-04-09T10:19:16.371Z,306
2023-04-09T10:21:23.190Z,308
2023-04-09T10:23:30.348Z,308
2023-04-09T10:25:37.668Z,307
2023-04-09T10:27:44.046Z,307
2023-04-09T10:29:51.556Z,308
2023-04-09T10:31:58.108Z,307
2023-04-09T10:34:04.504Z,306
2023-04-09T10:36:11.175Z,309
2023-04-09T10:38:18.710Z,309
2023-04-09T10:40:27.080Z,306
2023-04-09T10:42:35.523Z,309
2023-04-09T10:44:42.445Z,308
2023-04-09T10:46:50.159Z,307
2023-04-09T10:48:57.963Z,308
2023-04-09T10:51:04.982Z,308
2023-04-09T10:53:12.603Z,306
2023-04-09T10:55:19.302Z,307
2023-04-09T10:57:26.413Z,309
2023-04-09T10:59:33.930Z,309
2023-04-09T11:01:42.698Z,308
2023-04-09T11:03:51.292Z,308
2023-04-09T11:05:58.263Z,309
2023-04-09T11:08:06.365Z,309
2023-04-09T11:10:14.715Z,308
2023-04-09T11:12:21.286Z,309
2023-04-09T11:14:28.397Z,309
2023-04-09T11:16:35.715Z,310
2023-04-09T11:18:42.295Z,310
2023-04-09T11:20:49.169Z,310
2023-04-09T11:22:55.778Z,310
2023-04-09T11:25:02.618Z,310
2023-04-09T11:27:09.386Z,309
2023-04-09T11:29:15.625Z,308
2023-04-09T11:31:23.428Z,308
2023-04-09T11:33:31.222Z,308
2023-04-09T11:35:37.892Z,308
2023-04-09T11:37:44.563Z,308
2023-04-09T11:39:50.990Z,307
2023-04-09T11:41:58.098Z,309
2023-04-09T11:44:05.499Z,307
2023-04-09T11:46:12.022Z,308
2023-04-09T11:48:18.897Z,307
2023-04-09T11:50:25.647Z,310
2023-04-09T11:52:32.170Z,310
2023-04-09T11:54:39.059Z,310
2023-04-09T11:56:45.496Z,308
2023-04-09T11:58:54.099Z,309
2023-04-09T12:01:01.273Z,309
2023-04-09T12:03:09.234Z,309
2023-04-09T12:05:16.925Z,310
2023-04-09T12:07:24.351Z,310
2023-04-09T12:09:31.513Z,310
2023-04-09T12:11:38.301Z,310
2023-04-09T12:13:45.416Z,310
2023-04-09T12:15:52.041Z,310
2023-04-09T12:17:58.922Z,309
2023-04-09T12:20:06.231Z,308
2023-04-09T12:22:12.826Z,310
2023-04-09T12:24:19.386Z,310
2023-04-09T12:26:26.682Z,316
2023-04-09T12:28:33.114Z,309
2023-04-09T12:30:39.908Z,307
2023-04-09T12:32:47.306Z,310
2023-04-09T12:34:54.033Z,310
2023-04-09T12:37:00.499Z,309
2023-04-09T12:39:07.703Z,310
2023-04-09T12:41:14.178Z,310
2023-04-09T12:43:21.056Z,310
2023-04-09T12:45:27.551Z,310
2023-04-09T12:47:33.893Z,310
2023-04-09T12:49:44.128Z,312
2023-04-09T12:51:50.839Z,312
2023-04-09T12:53:58.178Z,312
2023-04-09T12:56:04.769Z,313
2023-04-09T12:58:11.434Z,307
2023-04-09T13:00:18.327Z,307
2023-04-09T13:02:25.132Z,308
2023-04-09T13:04:32.337Z,309
2023-04-09T13:06:39.187Z,309
2023-04-09T13:08:45.708Z,307
2023-04-09T13:10:52.580Z,310
2023-04-09T13:12:59.601Z,310
2023-04-09T13:15:06.244Z,310
2023-04-09T13:17:12.802Z,310
2023-04-09T13:19:20.098Z,309
2023-04-09T13:21:26.405Z,307
2023-04-09T13:23:33.420Z,313
2023-04-09T13:25:39.846Z,312
2023-04-09T13:27:46.738Z,314
2023-04-09T13:29:53.579Z,312
2023-04-09T13:32:00.019Z,312
2023-04-09T13:34:07.441Z,313
2023-04-09T13:36:14.625Z,313
2023-04-09T13:38:21.505Z,309
2023-04-09T13:40:28.767Z,309
2023-04-09T13:42:35.232Z,310
2023-04-09T13:44:41.845Z,308
2023-04-09T13:46:48.818Z,316
2023-04-09T13:48:56.187Z,312
2023-04-09T13:51:02.733Z,310
2023-04-09T13:53:10.210Z,310
2023-04-09T13:55:17.028Z,310
2023-04-09T13:57:23.477Z,313
2023-04-09T13:59:30.049Z,310
2023-04-09T14:01:37.554Z,312
2023-04-09T14:03:45.207Z,310
2023-04-09T14:05:52.858Z,308
2023-04-09T14:07:59.550Z,310
2023-04-09T14:10:06.359Z,309
2023-04-09T14:12:12.830Z,310
2023-04-09T14:14:19.303Z,310
2023-04-09T14:16:25.886Z,309
2023-04-09T14:18:32.403Z,315
2023-04-09T14:20:38.753Z,313
2023-04-09T14:22:45.652Z,313
2023-04-09T14:24:52.452Z,312
2023-04-09T14:26:59.249Z,313
2023-04-09T14:29:12.718Z,310
2023-04-09T14:31:22.754Z,312
2023-04-09T14:33:29.966Z,312
2023-04-09T14:35:36.755Z,312
2023-04-09T14:37:43.265Z,312
2023-04-09T14:39:49.847Z,313
2023-04-09T14:41:56.536Z,310
2023-04-09T14:44:03.228Z,312
2023-04-09T14:46:09.876Z,310
2023-04-09T14:48:16.686Z,309
2023-04-09T14:50:23.981Z,310
2023-04-09T14:52:30.961Z,309
2023-04-09T14:54:37.780Z,310
2023-04-09T14:56:44.232Z,310
2023-04-09T14:58:50.660Z,309
2023-04-09T15:00:57.657Z,310
2023-04-09T15:03:04.733Z,310
2023-04-09T15:05:11.471Z,309
2023-04-09T15:07:18.217Z,309
2023-04-09T15:09:25.074Z,309
2023-04-09T15:11:32.128Z,310
2023-04-09T15:13:39.008Z,309
2023-04-09T15:15:45.752Z,308
2023-04-09T15:17:53.192Z,308
2023-04-09T15:19:59.919Z,308
2023-04-09T15:22:06.392Z,307
2023-04-09T15:24:12.858Z,309
2023-04-09T15:26:19.533Z,308
2023-04-09T15:28:26.074Z,307
2023-04-09T15:30:33.494Z,307
2023-04-09T15:32:41.184Z,307
2023-04-09T15:34:48.133Z,307
2023-04-09T15:36:54.847Z,307
2023-04-09T15:39:02.058Z,306
2023-04-09T15:41:08.771Z,306
2023-04-09T15:43:15.424Z,308
2023-04-09T15:45:22.170Z,308
2023-04-09T15:47:31.956Z,309
2023-04-09T15:49:40.294Z,309
2023-04-09T15:51:47.317Z,310
2023-04-09T15:53:53.925Z,310
2023-04-09T15:56:01.616Z,309
2023-04-09T15:58:10.085Z,309
2023-04-09T16:00:17.865Z,308
2023-04-09T16:02:29.720Z,308
2023-04-09T16:04:38.245Z,308
2023-04-09T16:06:46.127Z,307
2023-04-09T16:08:53.812Z,308
2023-04-09T16:11:01.696Z,308
2023-04-09T16:13:09.692Z,309
2023-04-09T16:15:17.140Z,307
2023-04-09T16:17:25.387Z,308
2023-04-09T16:19:33.298Z,309
2023-04-09T16:21:39.992Z,308
2023-04-09T16:23:47.679Z,308
2023-04-09T16:25:55.883Z,307
2023-04-09T16:28:04.381Z,309
2023-04-09T16:30:11.603Z,308
2023-04-09T16:32:18.034Z,309
2023-04-09T16:34:27.946Z,309
2023-04-09T16:36:34.665Z,310
2023-04-09T16:38:41.354Z,308
2023-04-09T16:40:48.346Z,309
2023-04-09T16:42:55.532Z,310
2023-04-09T16:45:02.313Z,309
2023-04-09T16:47:09.645Z,309
2023-04-09T16:49:17.916Z,310
2023-04-09T16:51:26.773Z,312
2023-04-09T16:53:33.713Z,308
2023-04-09T16:55:42.464Z,309
2023-04-09T16:57:50.087Z,309
2023-04-09T16:59:57.703Z,310
2023-04-09T17:02:04.441Z,309
2023-04-09T17:04:11.738Z,309
2023-04-09T17:06:19.390Z,312
2023-04-09T17:08:25.971Z,310
2023-04-09T17:10:34.270Z,319
2023-04-09T17:12:42.091Z,320
2023-04-09T17:14:48.944Z,321
2023-04-09T17:16:55.954Z,319
2023-04-09T17:19:03.768Z,320
2023-04-09T17:21:11.329Z,319
2023-04-09T17:23:17.929Z,319
2023-04-09T17:25:25.179Z,320
2023-04-09T17:27:32.454Z,321
2023-04-09T17:29:39.141Z,321
2023-04-09T17:31:45.942Z,320
2023-04-09T17:33:53.010Z,320
2023-04-09T17:35:59.869Z,320
2023-04-09T17:38:06.517Z,319
2023-04-09T17:40:13.425Z,316
2023-04-09T17:42:20.428Z,314
2023-04-09T17:44:29.233Z,310
2023-04-09T17:46:36.530Z,307
2023-04-09T17:48:43.257Z,310
2023-04-09T17:50:50.288Z,309
2023-04-09T17:52:57.120Z,309
2023-04-09T17:55:03.773Z,309
2023-04-09T17:57:10.904Z,309
2023-04-09T17:59:17.759Z,308
2023-04-09T18:01:24.574Z,309
2023-04-09T18:03:32.538Z,309
2023-04-09T18:05:41.339Z,309
2023-04-09T18:07:48.446Z,309
2023-04-09T18:09:55.737Z,309
2023-04-09T18:12:03.137Z,310
2023-04-09T18:14:09.803Z,310
2023-04-09T18:16:16.596Z,309
2023-04-09T18:18:23.517Z,309
2023-04-09T18:20:30.519Z,307
2023-04-09T18:22:37.969Z,309
2023-04-09T18:24:45.606Z,309
2023-04-09T18:26:52.889Z,308
2023-04-09T18:29:03.381Z,307
2023-04-09T18:31:10.216Z,308
2023-04-09T18:33:18.008Z,308
2023-04-09T18:35:26.973Z,307
2023-04-09T18:37:34.129Z,308
2023-04-09T18:39:40.789Z,309
2023-04-09T18:41:47.543Z,310
2023-04-09T18:43:54.600Z,309
2023-04-09T18:46:01.478Z,309
2023-04-09T18:48:08.659Z,308
2023-04-09T18:50:15.554Z,309
2023-04-09T18:52:22.944Z,310
2023-04-09T18:54:30.543Z,308
2023-04-09T18:56:37.695Z,309
2023-04-09T18:58:46.562Z,308
2023-04-09T19:00:55.837Z,308
2023-04-09T19:03:04.509Z,308
2023-04-09T19:05:13.703Z,310
2023-04-09T19:07:22.261Z,309
2023-04-09T19:09:31.988Z,309
2023-04-09T19:11:42.706Z,308
2023-04-09T19:13:52.726Z,310
2023-04-09T19:16:00.214Z,307
2023-04-09T19:18:08.788Z,309
2023-04-09T19:20:18.060Z,309
2023-04-09T19:22:29.419Z,309
2023-04-09T19:24:37.601Z,308
2023-04-09T19:26:46.938Z,310
2023-04-09T19:28:58.272Z,310
2023-04-09T19:31:07.262Z,312
2023-04-09T19:33:17.563Z,310
2023-04-09T19:35:26.507Z,312
2023-04-09T19:37:35.948Z,310
2023-04-09T19:39:43.328Z,310
2023-04-09T19:41:51.230Z,310
2023-04-09T19:43:58.604Z,309
2023-04-09T19:46:05.406Z,309
2023-04-09T19:48:12.578Z,310
2023-04-09T19:50:19.500Z,312
2023-04-09T19:52:26.066Z,312
2023-04-09T19:54:33.383Z,310
2023-04-09T19:56:40.639Z,310
2023-04-09T19:58:47.206Z,309
2023-04-09T20:00:54.815Z,308
2023-04-09T20:03:02.470Z,309
2023-04-09T20:05:09.777Z,309
2023-04-09T20:07:16.861Z,308
2023-04-09T20:09:23.299Z,310
2023-04-09T20:11:30.467Z,309
2023-04-09T20:13:38.187Z,308
2023-04-09T20:15:44.713Z,309
2023-04-09T20:17:51.512Z,310
2023-04-09T20:19:58.471Z,309
2023-04-09T20:22:05.255Z,309
2023-04-09T20:24:12.257Z,308
2023-04-09T20:26:19.339Z,310
2023-04-09T20:28:25.701Z,308
2023-04-09T20:30:32.567Z,308
2023-04-09T20:32:39.443Z,309
2023-04-09T20:34:45.952Z,310
2023-04-09T20:36:52.965Z,310
2023-04-09T20:38:59.393Z,310
2023-04-09T20:41:05.787Z,309
2023-04-09T20:43:12.649Z,309
2023-04-09T20:45:19.047Z,310
2023-04-09T20:47:25.639Z,309
2023-04-09T20:49:32.159Z,309
2023-04-09T20:51:38.846Z,310
2023-04-09T20:53:45.431Z,310
2023-04-09T20:55:52.261Z,309
2023-04-09T20:57:58.557Z,308
2023-04-09T21:00:05.053Z,309
2023-04-09T21:02:11.931Z,308
2023-04-09T21:04:19.915Z,308
2023-04-09T21:06:27.199Z,308
2023-04-09T21:08:37.117Z,308
2023-04-09T21:10:45.384Z,308
2023-04-09T21:12:52.469Z,309
2023-04-09T21:14:58.605Z,308
2023-04-09T21:17:05.722Z,309
2023-04-09T21:19:12.666Z,307
2023-04-09T21:21:19.164Z,307
2023-04-09T21:23:26.190Z,307
2023-04-09T21:25:32.678Z,308
2023-04-09T21:27:39.129Z,309
2023-04-09T21:29:45.958Z,308
2023-04-09T21:31:52.768Z,309
2023-04-09T21:33:59.545Z,309
2023-04-09T21:36:07.785Z,309
2023-04-09T21:38:14.378Z,308
2023-04-09T21:40:20.980Z,309
2023-04-09T21:42:27.663Z,309
2023-04-09T21:44:34.438Z,310
2023-04-09T21:46:41.458Z,308
2023-04-09T21:48:49.163Z,307
2023-04-09T21:50:56.434Z,308
2023-04-09T21:53:03.361Z,308
2023-04-09T21:55:10.005Z,308
2023-04-09T21:57:16.631Z,307
2023-04-09T21:59:23.853Z,307
2023-04-09T22:01:32.885Z,303
2023-04-09T22:03:42.701Z,307
2023-04-09T22:05:49.220Z,307
2023-04-09T22:07:55.611Z,306
2023-04-09T22:10:02.486Z,298
2023-04-09T22:12:08.953Z,301
2023-04-09T22:14:15.679Z,298
2023-04-09T22:16:22.077Z,302
2023-04-09T22:18:28.484Z,302
2023-04-09T22:20:35.727Z,302
2023-04-09T22:22:43.161Z,304
2023-04-09T22:24:50.109Z,302
2023-04-09T22:26:56.498Z,305
2023-04-09T22:29:06.910Z,302
2023-04-09T22:31:14.026Z,302
2023-04-09T22:33:21.151Z,312
2023-04-09T22:35:27.439Z,313
2023-04-09T22:37:33.828Z,313
2023-04-09T22:39:40.309Z,313
2023-04-09T22:41:47.142Z,312
2023-04-09T22:43:54.884Z,308
2023-04-09T22:46:01.265Z,310
2023-04-09T22:48:07.719Z,310
2023-04-09T22:50:14.067Z,308
2023-04-09T22:52:20.435Z,307
2023-04-09T22:54:40.821Z,310
2023-04-09T22:56:47.921Z,310
2023-04-09T22:58:54.976Z,312
2023-04-09T23:01:03.133Z,312
2023-04-09T23:03:10.044Z,308
2023-04-09T23:05:16.990Z,309
2023-04-09T23:07:24.200Z,309
2023-04-09T23:09:30.613Z,309
2023-04-09T23:11:37.337Z,309
2023-04-09T23:13:44.185Z,309
2023-04-09T23:15:51.027Z,310
2023-04-09T23:17:58.332Z,310
2023-04-09T23:20:05.075Z,310
2023-04-09T23:22:11.580Z,310
2023-04-09T23:24:18.733Z,310
2023-04-09T23:26:25.349Z,298
2023-04-09T23:28:31.712Z,309
2023-04-09T23:30:38.715Z,315
2023-04-09T23:32:45.598Z,317
2023-04-09T23:34:51.946Z,293
2023-04-09T23:36:59.207Z,306
2023-04-09T23:39:06.106Z,308
2023-04-09T23:41:12.644Z,307
2023-04-09T23:43:18.798Z,307
2023-04-09T23:45:25.398Z,308
2023-04-09T23:47:31.833Z,308
2023-04-09T23:49:38.936Z,307
2023-04-09T23:51:45.361Z,307
2023-04-09T23:53:52.409Z,308
2023-04-09T23:56:02.429Z,309
2023-04-09T23:58:08.535Z,309
